sensor_id;sensor_type;location;lat;lon;timestamp;P1;durP1;ratioP1;P2;durP2;ratioP2
22223;SDS011;11281;52.194;21.006;2023-03-01T00:02:41;44.25;;;21.42;;
22223;SDS011;11281;52.194;21.006;2023-03-01T00:07:02;48.38;;;20.88;;
22223;SDS011;11281;52.194;21.006;2023-03-01T00:11:25;49.28;;;22.45;;
22223;SDS011;11281;52.194;21.006;2023-03-01T00:15:52;51.47;;;23.17;;
22223;SDS011;11281;52.194;21.006;2023-03-01T00:20:13;50.40;;;21.98;;
22223;SDS011;11281;52.194;21.006;2023-03-01T00:24:35;53.45;;;23.20;;
22223;SDS011;11281;52.194;21.006;2023-03-01T00:28:57;58.90;;;24.50;;
22223;SDS011;11281;52.194;21.006;2023-03-01T00:33:20;54.83;;;23.23;;
22223;SDS011;11281;52.194;21.006;2023-03-01T00:37:41;63.65;;;25.30;;
22223;SDS011;11281;52.194;21.006;2023-03-01T00:42:03;52.40;;;23.50;;
22223;SDS011;11281;52.194;21.006;2023-03-01T00:46:25;55.10;;;23.95;;
22223;SDS011;11281;52.194;21.006;2023-03-01T00:50:48;54.17;;;22.90;;
22223;SDS011;11281;52.194;21.006;2023-03-01T00:55:10;60.42;;;22.98;;
22223;SDS011;11281;52.194;21.006;2023-03-01T00:59:33;54.65;;;24.55;;
22223;SDS011;11281;52.194;21.006;2023-03-01T01:04:00;54.08;;;23.75;;
22223;SDS011;11281;52.194;21.006;2023-03-01T01:08:25;58.40;;;23.75;;
22223;SDS011;11281;52.194;21.006;2023-03-01T01:12:47;52.88;;;23.08;;
22223;SDS011;11281;52.194;21.006;2023-03-01T01:17:09;51.25;;;22.55;;
22223;SDS011;11281;52.194;21.006;2023-03-01T01:21:31;55.80;;;24.58;;
22223;SDS011;11281;52.194;21.006;2023-03-01T01:25:52;51.80;;;23.30;;
22223;SDS011;11281;52.194;21.006;2023-03-01T01:30:14;46.08;;;23.45;;
22223;SDS011;11281;52.194;21.006;2023-03-01T01:34:36;46.50;;;21.52;;
22223;SDS011;11281;52.194;21.006;2023-03-01T01:38:58;47.63;;;22.00;;
22223;SDS011;11281;52.194;21.006;2023-03-01T01:43:27;53.58;;;22.58;;
22223;SDS011;11281;52.194;21.006;2023-03-01T01:56:56;49.72;;;20.98;;
22223;SDS011;11281;52.194;21.006;2023-03-01T02:01:24;41.38;;;22.10;;
22223;SDS011;11281;52.194;21.006;2023-03-01T02:06:10;52.65;;;22.05;;
22223;SDS011;11281;52.194;21.006;2023-03-01T02:10:38;47.22;;;22.00;;
22223;SDS011;11281;52.194;21.006;2023-03-01T02:15:02;52.83;;;21.67;;
22223;SDS011;11281;52.194;21.006;2023-03-01T02:19:39;56.80;;;22.50;;
22223;SDS011;11281;52.194;21.006;2023-03-01T02:24:35;48.08;;;23.00;;
22223;SDS011;11281;52.194;21.006;2023-03-01T02:29:08;55.03;;;24.00;;
22223;SDS011;11281;52.194;21.006;2023-03-01T02:33:31;53.42;;;21.95;;
22223;SDS011;11281;52.194;21.006;2023-03-01T02:37:56;51.05;;;23.42;;
22223;SDS011;11281;52.194;21.006;2023-03-01T02:42:22;50.33;;;21.70;;
22223;SDS011;11281;52.194;21.006;2023-03-01T02:46:53;45.50;;;21.70;;
22223;SDS011;11281;52.194;21.006;2023-03-01T02:55:54;55.47;;;22.25;;
22223;SDS011;11281;52.194;21.006;2023-03-01T03:00:17;42.83;;;19.63;;
22223;SDS011;11281;52.194;21.006;2023-03-01T03:04:43;44.67;;;21.53;;
22223;SDS011;11281;52.194;21.006;2023-03-01T03:09:05;41.10;;;20.15;;
22223;SDS011;11281;52.194;21.006;2023-03-01T03:13:27;42.38;;;20.17;;
22223;SDS011;11281;52.194;21.006;2023-03-01T03:17:49;38.88;;;20.15;;
22223;SDS011;11281;52.194;21.006;2023-03-01T03:22:12;39.88;;;20.48;;
22223;SDS011;11281;52.194;21.006;2023-03-01T03:26:34;52.08;;;20.08;;
22223;SDS011;11281;52.194;21.006;2023-03-01T03:30:56;42.17;;;20.05;;
22223;SDS011;11281;52.194;21.006;2023-03-01T03:35:23;50.85;;;21.58;;
22223;SDS011;11281;52.194;21.006;2023-03-01T03:39:51;50.47;;;19.85;;
22223;SDS011;11281;52.194;21.006;2023-03-01T03:44:15;47.25;;;19.58;;
22223;SDS011;11281;52.194;21.006;2023-03-01T03:48:41;45.20;;;20.00;;
22223;SDS011;11281;52.194;21.006;2023-03-01T03:53:06;37.53;;;18.75;;
22223;SDS011;11281;52.194;21.006;2023-03-01T03:57:31;42.42;;;19.45;;
22223;SDS011;11281;52.194;21.006;2023-03-01T04:01:52;49.75;;;20.40;;
22223;SDS011;11281;52.194;21.006;2023-03-01T04:06:14;42.38;;;20.00;;
22223;SDS011;11281;52.194;21.006;2023-03-01T04:19:34;44.97;;;20.70;;
22223;SDS011;11281;52.194;21.006;2023-03-01T04:23:57;43.67;;;22.15;;
22223;SDS011;11281;52.194;21.006;2023-03-01T04:28:19;43.33;;;20.00;;
22223;SDS011;11281;52.194;21.006;2023-03-01T04:32:49;46.88;;;21.05;;
22223;SDS011;11281;52.194;21.006;2023-03-01T04:37:11;39.40;;;18.30;;
22223;SDS011;11281;52.194;21.006;2023-03-01T04:41:32;39.55;;;19.23;;
22223;SDS011;11281;52.194;21.006;2023-03-01T04:45:54;38.70;;;18.90;;
22223;SDS011;11281;52.194;21.006;2023-03-01T04:50:23;88.63;;;40.78;;
22223;SDS011;11281;52.194;21.006;2023-03-01T04:54:46;55.17;;;23.90;;
22223;SDS011;11281;52.194;21.006;2023-03-01T04:59:08;39.90;;;20.30;;
22223;SDS011;11281;52.194;21.006;2023-03-01T05:03:30;36.70;;;19.67;;
22223;SDS011;11281;52.194;21.006;2023-03-01T05:07:53;45.90;;;20.63;;
22223;SDS011;11281;52.194;21.006;2023-03-01T05:12:16;47.53;;;25.00;;
22223;SDS011;11281;52.194;21.006;2023-03-01T05:16:38;59.63;;;23.20;;
22223;SDS011;11281;52.194;21.006;2023-03-01T05:21:04;50.35;;;22.50;;
22223;SDS011;11281;52.194;21.006;2023-03-01T05:25:29;67.18;;;30.38;;
22223;SDS011;11281;52.194;21.006;2023-03-01T05:29:53;53.30;;;22.25;;
22223;SDS011;11281;52.194;21.006;2023-03-01T05:34:15;78.45;;;32.10;;
22223;SDS011;11281;52.194;21.006;2023-03-01T05:38:37;55.75;;;24.85;;
22223;SDS011;11281;52.194;21.006;2023-03-01T05:42:59;51.25;;;25.20;;
22223;SDS011;11281;52.194;21.006;2023-03-01T05:47:21;54.67;;;26.13;;
22223;SDS011;11281;52.194;21.006;2023-03-01T05:51:43;47.45;;;22.75;;
22223;SDS011;11281;52.194;21.006;2023-03-01T05:56:10;38.93;;;20.47;;
22223;SDS011;11281;52.194;21.006;2023-03-01T06:00:32;47.45;;;18.42;;
22223;SDS011;11281;52.194;21.006;2023-03-01T06:04:54;34.53;;;17.70;;
22223;SDS011;11281;52.194;21.006;2023-03-01T06:09:16;41.60;;;18.42;;
22223;SDS011;11281;52.194;21.006;2023-03-01T06:13:38;42.05;;;18.70;;
22223;SDS011;11281;52.194;21.006;2023-03-01T06:18:00;40.20;;;19.58;;
22223;SDS011;11281;52.194;21.006;2023-03-01T06:22:21;39.58;;;20.50;;
22223;SDS011;11281;52.194;21.006;2023-03-01T06:26:43;38.75;;;18.20;;
22223;SDS011;11281;52.194;21.006;2023-03-01T06:31:05;43.80;;;17.17;;
22223;SDS011;11281;52.194;21.006;2023-03-01T06:35:29;42.75;;;19.00;;
22223;SDS011;11281;52.194;21.006;2023-03-01T06:39:51;52.38;;;20.95;;
22223;SDS011;11281;52.194;21.006;2023-03-01T06:44:13;44.17;;;20.20;;
22223;SDS011;11281;52.194;21.006;2023-03-01T06:48:35;44.75;;;19.48;;
22223;SDS011;11281;52.194;21.006;2023-03-01T06:52:57;43.65;;;17.98;;
22223;SDS011;11281;52.194;21.006;2023-03-01T06:57:19;36.40;;;18.75;;
22223;SDS011;11281;52.194;21.006;2023-03-01T07:01:41;55.45;;;22.75;;
22223;SDS011;11281;52.194;21.006;2023-03-01T07:06:03;62.50;;;24.27;;
22223;SDS011;11281;52.194;21.006;2023-03-01T07:10:25;46.42;;;20.85;;
22223;SDS011;11281;52.194;21.006;2023-03-01T07:14:46;51.97;;;21.35;;
22223;SDS011;11281;52.194;21.006;2023-03-01T07:19:08;51.97;;;21.15;;
22223;SDS011;11281;52.194;21.006;2023-03-01T07:23:30;50.60;;;20.63;;
22223;SDS011;11281;52.194;21.006;2023-03-01T07:27:52;43.38;;;20.58;;
22223;SDS011;11281;52.194;21.006;2023-03-01T07:32:14;53.83;;;23.02;;
22223;SDS011;11281;52.194;21.006;2023-03-01T07:36:36;49.63;;;22.70;;
22223;SDS011;11281;52.194;21.006;2023-03-01T07:40:59;47.88;;;21.17;;
22223;SDS011;11281;52.194;21.006;2023-03-01T07:45:22;43.47;;;19.27;;
22223;SDS011;11281;52.194;21.006;2023-03-01T07:49:45;51.38;;;22.10;;
22223;SDS011;11281;52.194;21.006;2023-03-01T07:54:07;36.33;;;19.17;;
22223;SDS011;11281;52.194;21.006;2023-03-01T07:58:29;38.25;;;18.25;;
22223;SDS011;11281;52.194;21.006;2023-03-01T08:02:51;54.35;;;18.50;;
22223;SDS011;11281;52.194;21.006;2023-03-01T08:07:12;37.40;;;15.95;;
22223;SDS011;11281;52.194;21.006;2023-03-01T08:11:34;39.05;;;17.13;;
22223;SDS011;11281;52.194;21.006;2023-03-01T08:16:11;39.70;;;18.52;;
22223;SDS011;11281;52.194;21.006;2023-03-01T08:20:35;35.90;;;19.30;;
22223;SDS011;11281;52.194;21.006;2023-03-01T08:24:57;30.33;;;16.17;;
22223;SDS011;11281;52.194;21.006;2023-03-01T08:29:18;45.80;;;18.50;;
22223;SDS011;11281;52.194;21.006;2023-03-01T08:33:40;40.92;;;17.60;;
22223;SDS011;11281;52.194;21.006;2023-03-01T08:38:02;35.08;;;15.48;;
22223;SDS011;11281;52.194;21.006;2023-03-01T08:42:24;34.30;;;15.82;;
22223;SDS011;11281;52.194;21.006;2023-03-01T08:46:46;33.20;;;16.08;;
22223;SDS011;11281;52.194;21.006;2023-03-01T08:51:09;30.88;;;14.00;;
22223;SDS011;11281;52.194;21.006;2023-03-01T08:55:34;23.90;;;11.27;;
22223;SDS011;11281;52.194;21.006;2023-03-01T08:59:55;25.83;;;13.05;;
22223;SDS011;11281;52.194;21.006;2023-03-01T09:04:17;24.20;;;10.98;;
22223;SDS011;11281;52.194;21.006;2023-03-01T09:08:40;27.00;;;10.02;;
22223;SDS011;11281;52.194;21.006;2023-03-01T09:13:04;23.65;;;11.57;;
22223;SDS011;11281;52.194;21.006;2023-03-01T09:17:26;30.90;;;15.18;;
22223;SDS011;11281;52.194;21.006;2023-03-01T09:21:47;38.95;;;17.08;;
22223;SDS011;11281;52.194;21.006;2023-03-01T09:26:17;23.73;;;12.38;;
22223;SDS011;11281;52.194;21.006;2023-03-01T09:30:42;22.73;;;11.45;;
22223;SDS011;11281;52.194;21.006;2023-03-01T09:35:04;31.60;;;12.35;;
22223;SDS011;11281;52.194;21.006;2023-03-01T09:39:26;24.98;;;12.27;;
22223;SDS011;11281;52.194;21.006;2023-03-01T09:43:50;23.70;;;10.80;;
22223;SDS011;11281;52.194;21.006;2023-03-01T09:48:21;27.40;;;11.82;;
22223;SDS011;11281;52.194;21.006;2023-03-01T09:52:53;27.00;;;12.15;;
22223;SDS011;11281;52.194;21.006;2023-03-01T09:57:26;21.80;;;12.52;;
22223;SDS011;11281;52.194;21.006;2023-03-01T10:06:56;28.70;;;12.52;;
22223;SDS011;11281;52.194;21.006;2023-03-01T10:11:50;37.67;;;16.02;;
22223;SDS011;11281;52.194;21.006;2023-03-01T10:16:16;26.27;;;12.75;;
22223;SDS011;11281;52.194;21.006;2023-03-01T10:20:56;35.00;;;14.10;;
22223;SDS011;11281;52.194;21.006;2023-03-01T10:30:05;31.42;;;11.80;;
22223;SDS011;11281;52.194;21.006;2023-03-01T10:34:37;26.97;;;11.60;;
22223;SDS011;11281;52.194;21.006;2023-03-01T10:38:58;24.38;;;11.07;;
22223;SDS011;11281;52.194;21.006;2023-03-01T10:43:20;26.35;;;12.48;;
22223;SDS011;11281;52.194;21.006;2023-03-01T10:47:42;25.52;;;11.48;;
22223;SDS011;11281;52.194;21.006;2023-03-01T10:52:17;22.58;;;10.38;;
22223;SDS011;11281;52.194;21.006;2023-03-01T11:05:54;30.40;;;14.25;;
22223;SDS011;11281;52.194;21.006;2023-03-01T11:10:26;26.25;;;12.38;;
22223;SDS011;11281;52.194;21.006;2023-03-01T11:14:56;27.13;;;13.82;;
22223;SDS011;11281;52.194;21.006;2023-03-01T11:19:20;30.42;;;12.75;;
22223;SDS011;11281;52.194;21.006;2023-03-01T11:23:42;27.90;;;14.77;;
22223;SDS011;11281;52.194;21.006;2023-03-01T11:28:07;26.65;;;12.43;;
22223;SDS011;11281;52.194;21.006;2023-03-01T11:32:38;30.52;;;12.85;;
22223;SDS011;11281;52.194;21.006;2023-03-01T11:37:54;29.30;;;12.85;;
22223;SDS011;11281;52.194;21.006;2023-03-01T11:42:11;28.80;;;12.20;;
22223;SDS011;11281;52.194;21.006;2023-03-01T11:51:46;28.45;;;12.20;;
22223;SDS011;11281;52.194;21.006;2023-03-01T11:56:22;30.30;;;13.50;;
22223;SDS011;11281;52.194;21.006;2023-03-01T12:10:48;25.98;;;11.27;;
22223;SDS011;11281;52.194;21.006;2023-03-01T12:44:24;21.00;;;10.68;;
22223;SDS011;11281;52.194;21.006;2023-03-01T12:49:07;27.02;;;13.48;;
22223;SDS011;11281;52.194;21.006;2023-03-01T12:53:39;24.60;;;12.10;;
22223;SDS011;11281;52.194;21.006;2023-03-01T13:02:49;26.55;;;11.75;;
22223;SDS011;11281;52.194;21.006;2023-03-01T13:17:28;25.75;;;11.80;;
22223;SDS011;11281;52.194;21.006;2023-03-01T13:21:53;21.45;;;10.57;;
22223;SDS011;11281;52.194;21.006;2023-03-01T13:26:16;24.98;;;11.85;;
22223;SDS011;11281;52.194;21.006;2023-03-01T13:30:39;28.02;;;12.20;;
22223;SDS011;11281;52.194;21.006;2023-03-01T13:35:03;21.80;;;9.63;;
22223;SDS011;11281;52.194;21.006;2023-03-01T13:39:41;26.10;;;10.70;;
22223;SDS011;11281;52.194;21.006;2023-03-01T13:44:11;23.75;;;10.77;;
22223;SDS011;11281;52.194;21.006;2023-03-01T13:48:33;22.88;;;11.48;;
22223;SDS011;11281;52.194;21.006;2023-03-01T13:52:59;26.33;;;12.00;;
22223;SDS011;11281;52.194;21.006;2023-03-01T13:57:30;22.15;;;10.90;;
22223;SDS011;11281;52.194;21.006;2023-03-01T14:01:56;22.80;;;11.07;;
22223;SDS011;11281;52.194;21.006;2023-03-01T14:06:28;23.90;;;11.60;;
22223;SDS011;11281;52.194;21.006;2023-03-01T14:15:50;25.40;;;12.18;;
22223;SDS011;11281;52.194;21.006;2023-03-01T14:20:44;30.15;;;13.95;;
22223;SDS011;11281;52.194;21.006;2023-03-01T14:25:25;20.75;;;10.85;;
22223;SDS011;11281;52.194;21.006;2023-03-01T14:29:56;29.02;;;13.70;;
22223;SDS011;11281;52.194;21.006;2023-03-01T14:34:21;24.38;;;12.90;;
22223;SDS011;11281;52.194;21.006;2023-03-01T14:38:46;26.02;;;11.98;;
22223;SDS011;11281;52.194;21.006;2023-03-01T14:43:09;25.65;;;11.98;;
22223;SDS011;11281;52.194;21.006;2023-03-01T14:47:35;22.85;;;10.73;;
22223;SDS011;11281;52.194;21.006;2023-03-01T14:52:07;20.17;;;10.63;;
22223;SDS011;11281;52.194;21.006;2023-03-01T14:56:43;30.90;;;12.65;;
22223;SDS011;11281;52.194;21.006;2023-03-01T15:01:06;28.35;;;12.98;;
22223;SDS011;11281;52.194;21.006;2023-03-01T15:05:33;27.58;;;13.32;;
22223;SDS011;11281;52.194;21.006;2023-03-01T15:09:55;23.13;;;12.13;;
22223;SDS011;11281;52.194;21.006;2023-03-01T15:14:28;27.92;;;15.45;;
22223;SDS011;11281;52.194;21.006;2023-03-01T15:19:05;33.97;;;15.40;;
22223;SDS011;11281;52.194;21.006;2023-03-01T15:23:28;29.70;;;14.35;;
22223;SDS011;11281;52.194;21.006;2023-03-01T15:27:51;27.05;;;13.73;;
22223;SDS011;11281;52.194;21.006;2023-03-01T15:36:54;24.67;;;11.77;;
22223;SDS011;11281;52.194;21.006;2023-03-01T15:41:29;25.63;;;13.05;;
22223;SDS011;11281;52.194;21.006;2023-03-01T15:45:58;24.25;;;12.32;;
22223;SDS011;11281;52.194;21.006;2023-03-01T15:54:49;27.67;;;13.13;;
22223;SDS011;11281;52.194;21.006;2023-03-01T15:59:11;30.13;;;16.42;;
22223;SDS011;11281;52.194;21.006;2023-03-01T16:03:36;30.55;;;15.77;;
22223;SDS011;11281;52.194;21.006;2023-03-01T16:07:58;28.35;;;15.60;;
22223;SDS011;11281;52.194;21.006;2023-03-01T16:12:21;26.35;;;13.98;;
22223;SDS011;11281;52.194;21.006;2023-03-01T16:16:45;30.02;;;15.00;;
22223;SDS011;11281;52.194;21.006;2023-03-01T16:21:11;25.80;;;12.07;;
22223;SDS011;11281;52.194;21.006;2023-03-01T16:25:41;20.63;;;12.15;;
22223;SDS011;11281;52.194;21.006;2023-03-01T16:30:03;18.73;;;10.68;;
22223;SDS011;11281;52.194;21.006;2023-03-01T16:34:27;27.35;;;11.40;;
22223;SDS011;11281;52.194;21.006;2023-03-01T16:38:49;27.80;;;12.80;;
22223;SDS011;11281;52.194;21.006;2023-03-01T16:43:12;23.30;;;12.00;;
22223;SDS011;11281;52.194;21.006;2023-03-01T16:47:34;25.90;;;11.32;;
22223;SDS011;11281;52.194;21.006;2023-03-01T16:51:56;20.58;;;10.43;;
22223;SDS011;11281;52.194;21.006;2023-03-01T16:56:18;22.23;;;11.52;;
22223;SDS011;11281;52.194;21.006;2023-03-01T17:00:40;20.83;;;12.02;;
22223;SDS011;11281;52.194;21.006;2023-03-01T17:05:02;35.22;;;13.05;;
22223;SDS011;11281;52.194;21.006;2023-03-01T17:09:24;21.80;;;13.88;;
22223;SDS011;11281;52.194;21.006;2023-03-01T17:13:46;26.98;;;12.48;;
22223;SDS011;11281;52.194;21.006;2023-03-01T17:18:09;31.77;;;14.48;;
22223;SDS011;11281;52.194;21.006;2023-03-01T17:22:30;30.30;;;13.98;;
22223;SDS011;11281;52.194;21.006;2023-03-01T17:26:52;33.97;;;14.65;;
22223;SDS011;11281;52.194;21.006;2023-03-01T17:31:14;29.80;;;16.38;;
22223;SDS011;11281;52.194;21.006;2023-03-01T17:35:36;33.85;;;16.42;;
22223;SDS011;11281;52.194;21.006;2023-03-01T17:39:58;34.45;;;16.30;;
22223;SDS011;11281;52.194;21.006;2023-03-01T17:44:19;41.03;;;15.48;;
22223;SDS011;11281;52.194;21.006;2023-03-01T17:48:41;31.17;;;15.73;;
22223;SDS011;11281;52.194;21.006;2023-03-01T17:53:03;36.20;;;15.40;;
22223;SDS011;11281;52.194;21.006;2023-03-01T17:57:29;44.92;;;18.45;;
22223;SDS011;11281;52.194;21.006;2023-03-01T18:01:51;37.20;;;17.52;;
22223;SDS011;11281;52.194;21.006;2023-03-01T18:06:14;30.55;;;16.92;;
22223;SDS011;11281;52.194;21.006;2023-03-01T18:10:42;33.92;;;17.42;;
22223;SDS011;11281;52.194;21.006;2023-03-01T18:15:06;38.53;;;19.23;;
22223;SDS011;11281;52.194;21.006;2023-03-01T18:19:28;35.60;;;16.60;;
22223;SDS011;11281;52.194;21.006;2023-03-01T18:23:50;39.85;;;19.90;;
22223;SDS011;11281;52.194;21.006;2023-03-01T18:28:13;40.05;;;19.77;;
22223;SDS011;11281;52.194;21.006;2023-03-01T18:32:34;40.58;;;18.95;;
22223;SDS011;11281;52.194;21.006;2023-03-01T18:36:56;46.65;;;20.33;;
22223;SDS011;11281;52.194;21.006;2023-03-01T18:41:18;42.13;;;20.15;;
22223;SDS011;11281;52.194;21.006;2023-03-01T18:45:40;36.03;;;18.98;;
22223;SDS011;11281;52.194;21.006;2023-03-01T18:50:05;42.10;;;20.27;;
22223;SDS011;11281;52.194;21.006;2023-03-01T18:54:27;44.35;;;20.80;;
22223;SDS011;11281;52.194;21.006;2023-03-01T18:58:49;44.63;;;20.25;;
22223;SDS011;11281;52.194;21.006;2023-03-01T19:03:10;39.75;;;20.35;;
22223;SDS011;11281;52.194;21.006;2023-03-01T19:07:32;45.90;;;21.42;;
22223;SDS011;11281;52.194;21.006;2023-03-01T19:11:54;42.15;;;20.75;;
22223;SDS011;11281;52.194;21.006;2023-03-01T19:16:20;45.83;;;21.95;;
22223;SDS011;11281;52.194;21.006;2023-03-01T19:20:43;49.55;;;22.98;;
22223;SDS011;11281;52.194;21.006;2023-03-01T19:25:05;54.42;;;24.80;;
22223;SDS011;11281;52.194;21.006;2023-03-01T19:29:28;51.58;;;25.63;;
22223;SDS011;11281;52.194;21.006;2023-03-01T19:33:49;53.90;;;24.80;;
22223;SDS011;11281;52.194;21.006;2023-03-01T19:38:12;50.38;;;24.88;;
22223;SDS011;11281;52.194;21.006;2023-03-01T19:42:34;65.40;;;31.30;;
22223;SDS011;11281;52.194;21.006;2023-03-01T19:46:56;57.03;;;26.50;;
22223;SDS011;11281;52.194;21.006;2023-03-01T19:51:18;61.40;;;26.88;;
22223;SDS011;11281;52.194;21.006;2023-03-01T19:55:40;72.53;;;31.27;;
22223;SDS011;11281;52.194;21.006;2023-03-01T20:00:02;76.53;;;30.85;;
22223;SDS011;11281;52.194;21.006;2023-03-01T20:04:24;84.43;;;34.78;;
22223;SDS011;11281;52.194;21.006;2023-03-01T20:08:47;78.05;;;35.22;;
22223;SDS011;11281;52.194;21.006;2023-03-01T20:13:09;73.32;;;32.20;;
22223;SDS011;11281;52.194;21.006;2023-03-01T20:17:31;64.32;;;31.13;;
22223;SDS011;11281;52.194;21.006;2023-03-01T20:21:52;60.95;;;28.40;;
22223;SDS011;11281;52.194;21.006;2023-03-01T20:26:14;60.00;;;28.02;;
22223;SDS011;11281;52.194;21.006;2023-03-01T20:30:39;60.00;;;27.63;;
22223;SDS011;11281;52.194;21.006;2023-03-01T20:35:01;63.90;;;27.60;;
22223;SDS011;11281;52.194;21.006;2023-03-01T20:39:23;58.97;;;27.42;;
22223;SDS011;11281;52.194;21.006;2023-03-01T20:43:45;62.63;;;26.50;;
22223;SDS011;11281;52.194;21.006;2023-03-01T20:48:14;56.33;;;27.42;;
22223;SDS011;11281;52.194;21.006;2023-03-01T20:52:36;62.75;;;28.10;;
22223;SDS011;11281;52.194;21.006;2023-03-01T20:56:58;67.88;;;28.90;;
22223;SDS011;11281;52.194;21.006;2023-03-01T21:01:19;64.43;;;30.65;;
22223;SDS011;11281;52.194;21.006;2023-03-01T21:05:43;72.78;;;32.15;;
22223;SDS011;11281;52.194;21.006;2023-03-01T21:10:05;69.75;;;33.53;;
22223;SDS011;11281;52.194;21.006;2023-03-01T21:14:27;77.72;;;34.53;;
22223;SDS011;11281;52.194;21.006;2023-03-01T21:18:49;83.28;;;32.75;;
22223;SDS011;11281;52.194;21.006;2023-03-01T21:23:11;74.25;;;33.40;;
22223;SDS011;11281;52.194;21.006;2023-03-01T21:27:35;84.18;;;38.55;;
22223;SDS011;11281;52.194;21.006;2023-03-01T21:31:58;74.57;;;36.08;;
22223;SDS011;11281;52.194;21.006;2023-03-01T21:36:20;72.75;;;35.60;;
22223;SDS011;11281;52.194;21.006;2023-03-01T21:40:44;68.72;;;34.13;;
22223;SDS011;11281;52.194;21.006;2023-03-01T21:45:06;73.40;;;32.78;;
22223;SDS011;11281;52.194;21.006;2023-03-01T21:49:28;65.18;;;30.30;;
22223;SDS011;11281;52.194;21.006;2023-03-01T21:53:50;60.70;;;28.23;;
22223;SDS011;11281;52.194;21.006;2023-03-01T21:58:13;74.18;;;30.55;;
22223;SDS011;11281;52.194;21.006;2023-03-01T22:02:38;59.90;;;27.88;;
22223;SDS011;11281;52.194;21.006;2023-03-01T22:07:00;63.08;;;28.40;;
22223;SDS011;11281;52.194;21.006;2023-03-01T22:11:23;66.47;;;28.90;;
22223;SDS011;11281;52.194;21.006;2023-03-01T22:15:48;69.05;;;31.70;;
22223;SDS011;11281;52.194;21.006;2023-03-01T22:20:10;72.70;;;30.38;;
22223;SDS011;11281;52.194;21.006;2023-03-01T22:24:32;67.03;;;29.67;;
22223;SDS011;11281;52.194;21.006;2023-03-01T22:28:54;68.03;;;29.58;;
22223;SDS011;11281;52.194;21.006;2023-03-01T22:33:19;69.38;;;28.60;;
22223;SDS011;11281;52.194;21.006;2023-03-01T22:37:41;63.80;;;29.52;;
22223;SDS011;11281;52.194;21.006;2023-03-01T22:42:03;70.18;;;29.08;;
22223;SDS011;11281;52.194;21.006;2023-03-01T22:46:26;68.47;;;30.30;;
22223;SDS011;11281;52.194;21.006;2023-03-01T22:50:48;66.30;;;30.60;;
22223;SDS011;11281;52.194;21.006;2023-03-01T22:55:11;66.30;;;28.77;;
22223;SDS011;11281;52.194;21.006;2023-03-01T22:59:33;75.03;;;29.83;;
22223;SDS011;11281;52.194;21.006;2023-03-01T23:03:54;78.40;;;34.38;;
22223;SDS011;11281;52.194;21.006;2023-03-01T23:08:17;70.10;;;31.73;;
22223;SDS011;11281;52.194;21.006;2023-03-01T23:12:39;64.68;;;30.90;;
22223;SDS011;11281;52.194;21.006;2023-03-01T23:17:00;62.08;;;29.48;;
22223;SDS011;11281;52.194;21.006;2023-03-01T23:21:23;56.63;;;27.73;;
22223;SDS011;11281;52.194;21.006;2023-03-01T23:25:54;60.58;;;26.88;;
22223;SDS011;11281;52.194;21.006;2023-03-01T23:30:17;64.03;;;28.55;;
22223;SDS011;11281;52.194;21.006;2023-03-01T23:34:39;65.45;;;26.88;;
22223;SDS011;11281;52.194;21.006;2023-03-01T23:39:05;63.00;;;26.05;;
22223;SDS011;11281;52.194;21.006;2023-03-01T23:43:27;57.50;;;25.05;;
22223;SDS011;11281;52.194;21.006;2023-03-01T23:47:50;63.03;;;27.63;;
22223;SDS011;11281;52.194;21.006;2023-03-01T23:52:12;60.38;;;27.20;;
22223;SDS011;11281;52.194;21.006;2023-03-01T23:56:35;60.63;;;28.08;;
